createdAt,value
2019-04-11T00:02:51.165Z,72.20
2019-04-11T00:06:54.030Z,72.80
2019-04-11T00:10:55.934Z,73.00
2019-04-11T00:14:58.083Z,73.80
2019-04-11T00:19:00.088Z,73.50
2019-04-11T00:23:02.229Z,74.00
2019-04-11T00:27:04.560Z,74.50
2019-04-11T00:31:06.519Z,74.20
2019-04-11T00:35:09.235Z,74.00
2019-04-11T00:39:13.279Z,74.00
2019-04-11T00:43:28.073Z,74.00
2019-04-11T00:47:20.722Z,74.80
2019-04-11T00:51:23.561Z,74.60
2019-04-11T00:55:25.546Z,75.70
2019-04-11T00:59:28.349Z,77.10
2019-04-11T01:03:30.513Z,76.20
2019-04-11T01:07:33.175Z,76.00
2019-04-11T01:11:36.222Z,75.50
2019-04-11T01:15:40.828Z,75.70
2019-04-11T01:19:42.797Z,76.20
2019-04-11T01:23:44.926Z,76.10
2019-04-11T01:27:47.985Z,76.50
2019-04-11T01:31:51.711Z,76.70
2019-04-11T01:35:53.592Z,76.50
2019-04-11T01:40:02.040Z,78.00
2019-04-11T01:44:07.094Z,77.50
2019-04-11T01:48:21.678Z,78.10
2019-04-11T01:52:24.475Z,77.00
2019-04-11T01:56:27.347Z,78.00
2019-04-11T02:00:48.577Z,78.30
2019-04-11T02:05:02.799Z,77.00
2019-04-11T02:09:09.811Z,76.50
2019-04-11T02:13:11.984Z,77.00
2019-04-11T02:17:14.893Z,77.20
2019-04-11T02:21:35.955Z,77.50
2019-04-11T02:25:44.952Z,77.50
2019-04-11T02:29:46.885Z,76.60
2019-04-11T02:33:48.970Z,77.50
2019-04-11T02:37:52.081Z,77.30
2019-04-11T02:41:54.974Z,77.90
2019-04-11T02:46:09.810Z,77.30
2019-04-11T02:50:01.551Z,78.10
2019-04-11T02:54:04.616Z,78.40
2019-04-11T02:58:07.844Z,78.10
2019-04-11T03:02:12.974Z,78.30
2019-04-11T03:06:15.272Z,79.00
2019-04-11T03:10:18.769Z,78.90
2019-04-11T03:14:23.185Z,79.30
2019-04-11T03:18:51.337Z,79.00
2019-04-11T03:22:29.891Z,79.70
2019-04-11T03:26:33.609Z,79.60
2019-04-11T03:30:54.643Z,79.40
2019-04-11T03:39:05.729Z,80.30
2019-04-11T03:43:04.424Z,80.60
2019-04-11T03:47:08.419Z,80.30
2019-04-11T03:50:57.336Z,79.90
2019-04-11T03:55:00.446Z,79.70
2019-04-11T03:59:04.067Z,79.70
2019-04-11T04:03:06.473Z,79.90
2019-04-11T04:07:09.051Z,80.70
2019-04-11T04:11:18.884Z,79.70
2019-04-11T04:15:47.220Z,79.80
2019-04-11T04:19:54.301Z,80.00
2019-04-11T04:23:59.405Z,80.50
2019-04-11T04:28:00.449Z,81.00
2019-04-11T04:32:02.967Z,81.50
2019-04-11T04:36:10.093Z,81.60
2019-04-11T04:40:28.399Z,82.20
2019-04-11T04:44:16.991Z,82.40
2019-04-11T04:48:24.202Z,82.00
2019-04-11T04:52:25.053Z,82.20
2019-04-11T04:56:31.081Z,81.90
2019-04-11T05:00:31.937Z,82.20
2019-04-11T05:04:35.929Z,82.40
2019-04-11T05:08:39.021Z,82.90
2019-04-11T05:12:41.779Z,83.00
2019-04-11T05:16:44.219Z,83.90
2019-04-11T05:20:46.397Z,82.70
2019-04-11T05:24:48.342Z,83.40
2019-04-11T05:28:51.013Z,81.60
2019-04-11T05:32:53.479Z,81.90
2019-04-11T05:36:55.550Z,81.60
2019-04-11T05:40:58.497Z,80.50
2019-04-11T05:45:00.432Z,80.00
2019-04-11T05:49:05.324Z,80.80
2019-04-11T05:53:07.461Z,79.90
2019-04-11T05:57:11.204Z,80.60
2019-04-11T06:01:14.513Z,81.40
2019-04-11T06:05:19.268Z,81.20
2019-04-11T06:09:31.357Z,80.70
2019-04-11T06:13:48.900Z,80.00
2019-04-11T06:17:51.567Z,79.00
2019-04-11T06:21:56.067Z,79.70
2019-04-11T06:26:00.808Z,79.50
2019-04-11T06:30:24.234Z,77.80
2019-04-11T06:34:27.862Z,78.80
2019-04-11T06:38:34.410Z,77.60
2019-04-11T06:42:39.194Z,77.50
2019-04-11T06:46:55.887Z,77.70
2019-04-11T06:50:55.560Z,75.30
2019-04-11T06:55:06.698Z,76.50
2019-04-11T06:59:10.215Z,75.40
2019-04-11T07:03:22.513Z,75.10
2019-04-11T07:07:18.514Z,74.90
2019-04-11T07:11:38.450Z,74.60
2019-04-11T07:15:42.053Z,74.30
2019-04-11T07:19:57.548Z,74.70
2019-04-11T07:24:16.712Z,74.30
2019-04-11T07:28:25.258Z,73.50
2019-04-11T07:32:27.818Z,73.00
2019-04-11T07:36:48.382Z,72.70
2019-04-11T07:40:52.076Z,71.40
2019-04-11T07:45:01.591Z,70.30
2019-04-11T07:49:03.835Z,70.50
2019-04-11T07:53:08.680Z,70.20
2019-04-11T07:57:14.822Z,68.70
2019-04-11T08:01:18.994Z,67.50
2019-04-11T08:05:41.032Z,65.90
2019-04-11T08:09:54.988Z,67.00
2019-04-11T08:14:04.610Z,66.40
2019-04-11T08:18:11.089Z,65.40
2019-04-11T08:22:30.839Z,65.80
2019-04-11T08:26:50.494Z,65.20
2019-04-11T08:30:57.361Z,63.50
2019-04-11T08:35:02.002Z,63.10
2019-04-11T08:39:06.926Z,63.50
2019-04-11T08:43:10.905Z,63.50
2019-04-11T08:47:13.994Z,62.60
2019-04-11T08:51:19.038Z,61.10
2019-04-11T08:55:25.443Z,60.30
2019-04-11T08:59:29.345Z,62.40
2019-04-11T09:03:57.350Z,61.60
2019-04-11T09:08:10.001Z,58.50
2019-04-11T09:12:14.162Z,59.70
2019-04-11T09:16:21.594Z,58.60
2019-04-11T09:20:41.293Z,58.90
2019-04-11T09:25:01.696Z,57.60
2019-04-11T09:29:04.003Z,57.60
2019-04-11T09:33:17.803Z,58.00
2019-04-11T09:37:22.013Z,57.60
2019-04-11T09:41:38.615Z,57.40
2019-04-11T09:45:43.901Z,56.00
2019-04-11T09:49:47.573Z,55.80
2019-04-11T09:53:57.223Z,56.00
2019-04-11T09:58:01.259Z,54.60
2019-04-11T10:02:06.052Z,54.40
2019-04-11T10:06:32.324Z,55.00
2019-04-11T10:10:51.809Z,53.00
2019-04-11T10:14:53.720Z,52.80
2019-04-11T10:18:55.666Z,51.70
2019-04-11T10:23:16.500Z,52.30
2019-04-11T10:27:26.740Z,52.20
2019-04-11T10:31:30.598Z,53.10
2019-04-11T10:35:50.395Z,51.90
2019-04-11T10:39:53.426Z,51.30
2019-04-11T10:43:57.238Z,51.70
2019-04-11T10:47:59.319Z,50.90
2019-04-11T10:52:12.020Z,51.80
2019-04-11T10:56:32.646Z,51.10
2019-04-11T11:00:53.646Z,50.80
2019-04-11T11:04:57.179Z,49.60
2019-04-11T11:09:12.840Z,50.80
2019-04-11T11:13:32.389Z,50.70
2019-04-11T11:18:21.720Z,50.10
2019-04-11T11:21:59.899Z,49.20
2019-04-11T11:26:12.493Z,47.80
2019-04-11T11:30:23.648Z,48.10
2019-04-11T11:34:28.323Z,49.30
2019-04-11T11:38:30.333Z,48.80
2019-04-11T11:42:38.652Z,48.60
2019-04-11T11:46:42.625Z,47.40
2019-04-11T11:50:49.054Z,47.30
2019-04-11T11:54:49.889Z,46.80
2019-04-11T11:59:05.123Z,46.30
2019-04-11T12:03:12.799Z,44.60
2019-04-11T12:07:16.782Z,45.30
2019-04-11T12:11:18.807Z,45.80
2019-04-11T12:15:26.840Z,47.90
2019-04-11T12:19:43.813Z,47.30
2019-04-11T12:23:46.618Z,45.90
2019-04-11T12:27:41.514Z,47.20
2019-04-11T12:31:46.056Z,46.00
2019-04-11T12:35:52.794Z,46.90
2019-04-11T12:40:12.533Z,47.10
2019-04-11T12:44:30.308Z,46.80
2019-04-11T12:48:34.114Z,46.20
2019-04-11T12:52:40.605Z,46.60
2019-04-11T12:56:54.474Z,46.40
2019-04-11T13:01:06.928Z,46.70
2019-04-11T13:05:10.631Z,44.40
2019-04-11T13:09:18.448Z,42.80
2019-04-11T13:13:38.497Z,43.90
2019-04-11T13:17:58.091Z,44.00
2019-04-11T13:22:01.656Z,43.50
2019-04-11T13:26:21.834Z,43.30
2019-04-11T13:30:41.713Z,42.70
2019-04-11T13:34:45.265Z,40.00
2019-04-11T13:38:47.235Z,39.10
2019-04-11T13:43:06.662Z,39.30
2019-04-11T13:47:26.608Z,40.20
2019-04-11T13:51:31.210Z,40.80
2019-04-11T13:55:33.303Z,40.40
2019-04-11T13:59:35.009Z,39.20
2019-04-11T14:03:55.014Z,38.20
2019-04-11T14:07:58.501Z,36.50
2019-04-11T14:12:00.438Z,34.20
2019-04-11T14:16:19.030Z,35.10
2019-04-11T14:20:29.505Z,36.70
2019-04-11T14:24:33.754Z,38.10
2019-04-11T14:28:37.323Z,40.70
2019-04-11T14:32:45.017Z,41.60
2019-04-11T14:36:49.837Z,40.30
2019-04-11T14:41:01.601Z,39.20
2019-04-11T14:44:58.061Z,39.20
2019-04-11T14:49:00.261Z,41.20
2019-04-11T14:53:03.818Z,41.90
2019-04-11T14:57:18.125Z,42.20
2019-04-11T15:01:23.669Z,40.80
2019-04-11T15:05:28.085Z,39.30
2019-04-11T15:09:38.499Z,37.90
2019-04-11T15:13:42.071Z,38.10
2019-04-11T15:17:44.082Z,38.00
2019-04-11T15:21:54.849Z,37.90
2019-04-11T15:26:08.206Z,37.80
2019-04-11T15:30:21.715Z,38.80
2019-04-11T15:34:23.419Z,40.30
2019-04-11T15:38:33.868Z,39.70
2019-04-11T15:42:50.619Z,40.90
2019-04-11T15:46:54.008Z,39.90
2019-04-11T15:51:13.701Z,41.00
2019-04-11T15:55:37.530Z,41.70
2019-04-11T15:59:38.189Z,42.90
2019-04-11T16:03:40.102Z,42.80
2019-04-11T16:08:03.374Z,44.20
2019-04-11T16:12:09.847Z,43.60
2019-04-11T16:16:12.643Z,45.10
2019-04-11T16:20:17.749Z,45.30
2019-04-11T16:24:27.372Z,44.70
2019-04-11T16:28:31.477Z,44.60
2019-04-11T16:32:35.047Z,45.40
2019-04-11T16:36:38.773Z,44.90
2019-04-11T16:40:58.606Z,44.90
2019-04-11T16:45:09.484Z,45.90
2019-04-11T16:49:11.386Z,46.10
2019-04-11T16:53:13.317Z,45.80
2019-04-11T16:57:15.219Z,46.70
2019-04-11T17:01:17.133Z,46.60
2019-04-11T17:05:19.044Z,47.00
2019-04-11T17:09:26.589Z,47.00
2019-04-11T17:13:26.794Z,46.50
2019-04-11T17:17:30.566Z,47.30
2019-04-11T17:21:42.717Z,48.30
2019-04-11T17:25:35.930Z,47.60
2019-04-11T17:29:38.634Z,47.20
2019-04-11T17:34:01.851Z,49.10
2019-04-11T17:38:22.418Z,49.40
2019-04-11T17:42:24.341Z,49.30
2019-04-11T17:46:26.998Z,49.40
2019-04-11T17:50:29.420Z,49.30
2019-04-11T17:54:31.315Z,50.20
2019-04-11T17:58:33.333Z,49.50
2019-04-11T18:02:36.216Z,51.20
2019-04-11T18:06:38.591Z,51.50
2019-04-11T18:10:40.501Z,52.10
2019-04-11T18:14:42.408Z,51.90
2019-04-11T18:18:44.332Z,51.50
2019-04-11T18:22:50.113Z,52.00
2019-04-11T18:26:51.928Z,53.20
2019-04-11T18:30:54.087Z,53.20
2019-04-11T18:34:56.630Z,53.90
2019-04-11T18:39:02.051Z,55.00
2019-04-11T18:43:03.766Z,55.70
2019-04-11T18:47:05.737Z,56.70
2019-04-11T18:51:07.727Z,56.80
2019-04-11T18:55:09.996Z,56.60
2019-04-11T18:59:11.910Z,57.30
2019-04-11T19:03:14.448Z,58.20
2019-04-11T19:07:27.394Z,58.00
2019-04-11T19:11:19.989Z,59.60
2019-04-11T19:15:21.887Z,59.20
2019-04-11T19:19:23.807Z,59.80
2019-04-11T19:23:25.715Z,59.30
2019-04-11T19:27:27.606Z,59.30
2019-04-11T19:31:29.587Z,60.00
2019-04-11T19:35:31.495Z,59.90
2019-04-11T19:39:33.402Z,60.00
2019-04-11T19:43:35.305Z,60.00
2019-04-11T19:47:37.201Z,61.10
2019-04-11T19:51:39.106Z,61.00
2019-04-11T19:55:46.569Z,61.90
2019-04-11T19:59:48.472Z,62.00
2019-04-11T20:03:53.749Z,62.10
2019-04-11T20:07:53.969Z,62.20
2019-04-11T20:11:59.924Z,62.50
2019-04-11T20:15:59.590Z,62.00
2019-04-11T20:20:06.306Z,62.90
2019-04-11T20:24:06.342Z,63.80
2019-04-11T20:28:08.287Z,63.40
2019-04-11T20:32:10.143Z,63.90
2019-04-11T20:36:12.072Z,64.60
2019-04-11T20:40:17.218Z,64.60
2019-04-11T20:44:17.631Z,64.30
2019-04-11T20:48:19.511Z,64.60
2019-04-11T20:52:21.440Z,65.60
2019-04-11T20:56:24.573Z,65.90
2019-04-11T21:00:27.590Z,66.20
2019-04-11T21:04:31.323Z,66.30
2019-04-11T21:08:33.929Z,66.00
2019-04-11T21:12:37.374Z,65.70
2019-04-11T21:16:39.917Z,66.30
2019-04-11T21:20:41.820Z,66.30
2019-04-11T21:24:43.724Z,65.20
2019-04-11T21:28:45.620Z,66.40
2019-04-11T21:32:47.534Z,66.80
2019-04-11T21:36:49.425Z,68.40
2019-04-11T21:40:51.334Z,67.50
2019-04-11T21:44:53.231Z,67.60
2019-04-11T21:48:55.170Z,67.60
2019-04-11T21:52:57.134Z,68.70
2019-04-11T21:56:59.048Z,68.40
2019-04-11T22:01:05.603Z,69.00
2019-04-11T22:05:07.934Z,68.50
2019-04-11T22:09:10.109Z,67.40
2019-04-11T22:13:13.630Z,68.70
2019-04-11T22:17:16.162Z,68.10
2019-04-11T22:21:19.019Z,68.00
2019-04-11T22:25:20.926Z,69.00
2019-04-11T22:29:25.022Z,69.30
2019-04-11T22:33:33.012Z,68.30
2019-04-11T22:37:34.926Z,71.40
2019-04-11T22:41:36.830Z,70.20
2019-04-11T22:45:38.907Z,70.90
2019-04-11T22:49:40.897Z,72.40
2019-04-11T22:53:43.332Z,71.00
2019-04-11T22:57:45.791Z,71.90
2019-04-11T23:01:49.538Z,72.20
2019-04-11T23:05:51.463Z,72.30
2019-04-11T23:09:53.364Z,73.20
2019-04-11T23:13:55.267Z,73.60
2019-04-11T23:17:57.169Z,75.00
2019-04-11T23:22:00.037Z,74.90
2019-04-11T23:26:02.051Z,75.50
2019-04-11T23:30:12.617Z,75.50
2019-04-11T23:34:14.522Z,76.20
2019-04-11T23:38:16.438Z,76.00
2019-04-11T23:42:19.737Z,75.90
2019-04-11T23:46:22.165Z,76.20
2019-04-11T23:50:25.359Z,75.60
2019-04-11T23:54:29.330Z,76.50
2019-04-11T23:58:32.676Z,76.10
